createdAt,value
2018-07-31T00:01:17.419Z,570.57
2018-07-31T00:03:44.617Z,566.07
2018-07-31T00:06:18.134Z,569.20
2018-07-31T00:08:46.081Z,567.83
2018-07-31T00:11:13.295Z,567.80
2018-07-31T00:13:40.517Z,568.20
2018-07-31T00:16:07.734Z,565.63
2018-07-31T00:18:34.938Z,570.87
2018-07-31T00:21:02.151Z,568.47
2018-07-31T00:23:29.415Z,565.20
2018-07-31T00:25:56.618Z,565.87
2018-07-31T00:28:23.814Z,570.67
2018-07-31T00:30:50.999Z,562.33
2018-07-31T00:33:18.199Z,570.80
2018-07-31T00:35:45.383Z,563.13
2018-07-31T00:38:12.571Z,564.17
2018-07-31T00:40:39.907Z,565.67
2018-07-31T00:43:07.108Z,561.77
2018-07-31T00:45:34.294Z,562.63
2018-07-31T00:48:01.465Z,566.43
2018-07-31T00:50:28.647Z,562.13
2018-07-31T00:52:55.945Z,559.73
2018-07-31T00:55:23.143Z,567.57
2018-07-31T00:57:50.340Z,562.33
2018-07-31T01:00:17.551Z,558.33
2018-07-31T01:02:44.883Z,569.77
2018-07-31T01:05:12.064Z,568.33
2018-07-31T01:07:39.263Z,564.43
2018-07-31T01:10:06.457Z,561.60
2018-07-31T01:12:33.672Z,565.27
2018-07-31T01:15:00.879Z,563.73
2018-07-31T01:17:28.063Z,562.67
2018-07-31T01:19:55.244Z,563.00
2018-07-31T01:22:22.466Z,562.00
2018-07-31T01:24:49.668Z,559.70
2018-07-31T01:27:16.860Z,574.83
2018-07-31T01:29:44.047Z,561.37
2018-07-31T01:32:11.259Z,557.03
2018-07-31T01:34:38.443Z,558.87
2018-07-31T01:37:05.633Z,556.43
2018-07-31T01:39:32.835Z,563.00
2018-07-31T01:42:00.032Z,557.27
2018-07-31T01:44:27.251Z,556.57
2018-07-31T01:46:54.723Z,560.33
2018-07-31T01:49:21.920Z,560.70
2018-07-31T01:51:49.107Z,559.37
2018-07-31T01:54:16.299Z,556.37
2018-07-31T01:56:43.499Z,559.33
2018-07-31T01:59:10.719Z,556.83
2018-07-31T02:01:37.920Z,559.67
2018-07-31T02:04:05.264Z,556.37
2018-07-31T02:06:32.463Z,556.17
2018-07-31T02:08:59.662Z,558.07
2018-07-31T02:11:26.864Z,560.40
2018-07-31T02:13:54.232Z,552.97
2018-07-31T02:16:21.829Z,556.90
2018-07-31T02:18:49.040Z,552.90
2018-07-31T02:21:16.224Z,558.27
2018-07-31T02:23:43.613Z,559.27
2018-07-31T02:26:10.846Z,558.63
2018-07-31T02:28:38.073Z,557.53
2018-07-31T02:31:05.419Z,555.63
2018-07-31T02:33:32.629Z,559.27
2018-07-31T02:35:59.828Z,557.50
2018-07-31T02:38:27.028Z,554.30
2018-07-31T02:40:54.240Z,555.70
2018-07-31T02:43:21.475Z,553.87
2018-07-31T02:45:48.698Z,555.83
2018-07-31T02:48:15.889Z,568.13
2018-07-31T02:50:43.092Z,558.67
2018-07-31T02:53:10.303Z,554.33
2018-07-31T02:55:37.489Z,555.80
2018-07-31T02:58:04.747Z,559.53
2018-07-31T03:00:31.957Z,556.60
2018-07-31T03:02:59.160Z,558.90
2018-07-31T03:05:26.367Z,555.47
2018-07-31T03:07:53.559Z,556.40
2018-07-31T03:10:20.758Z,556.57
2018-07-31T03:12:47.967Z,556.00
2018-07-31T03:15:15.170Z,556.70
2018-07-31T03:17:42.380Z,552.57
2018-07-31T03:20:09.595Z,555.23
2018-07-31T03:22:36.858Z,560.03
2018-07-31T03:25:04.498Z,556.03
2018-07-31T03:27:31.710Z,554.00
2018-07-31T03:29:58.925Z,558.03
2018-07-31T03:32:26.121Z,556.37
2018-07-31T03:34:53.871Z,550.20
2018-07-31T03:37:21.107Z,558.20
2018-07-31T03:39:48.392Z,558.53
2018-07-31T03:42:15.596Z,553.37
2018-07-31T03:44:42.799Z,551.63
2018-07-31T03:47:10.474Z,552.87
2018-07-31T03:49:37.940Z,553.17
2018-07-31T03:52:05.410Z,551.90
2018-07-31T03:54:32.592Z,552.33
2018-07-31T03:56:59.828Z,551.80
2018-07-31T03:59:27.044Z,557.60
2018-07-31T04:01:54.259Z,555.70
2018-07-31T04:04:21.500Z,552.70
2018-07-31T04:07:03.639Z,557.30
2018-07-31T04:09:31.559Z,547.40
2018-07-31T04:11:58.780Z,552.77
2018-07-31T04:14:25.972Z,548.93
2018-07-31T04:16:53.214Z,552.83
2018-07-31T04:19:20.375Z,548.57
2018-07-31T04:21:47.584Z,546.20
2018-07-31T04:24:15.015Z,547.57
2018-07-31T04:26:42.235Z,553.57
2018-07-31T04:29:09.438Z,551.13
2018-07-31T04:31:36.658Z,550.37
2018-07-31T04:34:03.857Z,549.03
2018-07-31T04:36:31.073Z,556.40
2018-07-31T04:38:58.279Z,550.23
2018-07-31T04:41:25.512Z,551.10
2018-07-31T04:43:52.705Z,549.23
2018-07-31T04:46:19.912Z,548.77
2018-07-31T04:48:47.111Z,550.90
2018-07-31T04:51:14.328Z,548.93
2018-07-31T04:53:41.525Z,552.33
2018-07-31T04:56:08.758Z,551.57
2018-07-31T04:58:35.952Z,556.37
2018-07-31T05:01:03.163Z,556.13
2018-07-31T05:03:30.363Z,552.23
2018-07-31T05:05:57.557Z,552.43
2018-07-31T05:08:24.750Z,552.43
2018-07-31T05:10:51.955Z,558.50
2018-07-31T05:13:19.167Z,552.40
2018-07-31T05:15:46.791Z,558.40
2018-07-31T05:18:14.057Z,551.53
2018-07-31T05:20:41.227Z,561.63
2018-07-31T05:23:08.424Z,554.93
2018-07-31T05:25:35.624Z,560.70
2018-07-31T05:28:02.868Z,556.57
2018-07-31T05:30:30.068Z,558.43
2018-07-31T05:32:57.325Z,562.57
2018-07-31T05:35:24.517Z,557.67
2018-07-31T05:37:51.722Z,561.60
2018-07-31T05:40:18.924Z,560.60
2018-07-31T05:42:46.228Z,558.17
2018-07-31T05:45:13.424Z,558.17
2018-07-31T05:47:40.642Z,555.33
2018-07-31T05:50:08.671Z,559.50
2018-07-31T05:52:36.045Z,559.17
2018-07-31T05:55:03.547Z,559.17
2018-07-31T05:57:30.829Z,563.87
2018-07-31T05:59:58.012Z,560.20
2018-07-31T06:02:25.221Z,563.43
2018-07-31T06:04:52.423Z,559.37
2018-07-31T06:07:19.639Z,559.20
2018-07-31T06:09:46.979Z,562.90
2018-07-31T06:12:14.176Z,554.93
2018-07-31T06:14:41.378Z,559.77
2018-07-31T06:17:08.588Z,566.97
2018-07-31T06:19:35.796Z,557.63
2018-07-31T06:22:03.031Z,566.00
2018-07-31T06:24:30.238Z,560.87
2018-07-31T06:26:57.449Z,556.23
2018-07-31T06:29:24.658Z,559.07
2018-07-31T06:31:51.858Z,560.97
2018-07-31T06:34:19.087Z,561.53
2018-07-31T06:36:46.328Z,561.90
2018-07-31T06:39:13.535Z,566.67
2018-07-31T06:41:40.719Z,562.47
2018-07-31T06:44:07.929Z,565.37
2018-07-31T06:46:35.452Z,563.40
2018-07-31T06:49:02.691Z,564.20
2018-07-31T06:51:29.897Z,564.07
2018-07-31T06:53:57.105Z,566.57
2018-07-31T06:56:24.296Z,564.43
2018-07-31T06:58:51.520Z,570.10
2018-07-31T07:01:18.711Z,571.10
2018-07-31T07:03:45.919Z,575.47
2018-07-31T07:06:13.572Z,578.57
2018-07-31T07:08:40.771Z,616.73
2018-07-31T07:11:07.996Z,631.10
2018-07-31T07:13:35.368Z,704.00
2018-07-31T07:16:02.724Z,739.20
2018-07-31T07:18:30.095Z,747.03
2018-07-31T07:20:57.320Z,798.87
2018-07-31T07:23:24.724Z,795.53
2018-07-31T07:25:51.928Z,813.73
2018-07-31T07:28:19.132Z,853.50
2018-07-31T07:30:46.342Z,837.70
2018-07-31T07:33:13.528Z,873.07
2018-07-31T07:35:40.772Z,877.73
2018-07-31T07:38:07.976Z,869.27
2018-07-31T07:40:35.173Z,859.27
2018-07-31T07:43:02.399Z,858.23
2018-07-31T07:45:29.619Z,835.53
2018-07-31T07:47:56.852Z,865.23
2018-07-31T07:50:24.058Z,863.93
2018-07-31T07:52:51.363Z,886.90
2018-07-31T07:55:18.535Z,924.63
2018-07-31T07:57:46.045Z,895.23
2018-07-31T08:00:13.268Z,896.53
2018-07-31T08:02:40.500Z,880.33
2018-07-31T08:05:08.091Z,890.30
2018-07-31T08:07:35.326Z,895.97
2018-07-31T08:10:02.564Z,899.07
2018-07-31T08:12:29.918Z,897.63
2018-07-31T08:14:57.399Z,893.57
2018-07-31T08:17:24.611Z,938.13
2018-07-31T08:19:51.811Z,903.93
2018-07-31T08:22:19.004Z,903.93
2018-07-31T08:24:46.201Z,926.17
2018-07-31T08:27:13.419Z,933.07
2018-07-31T08:29:40.620Z,937.23
2018-07-31T08:32:07.901Z,911.37
2018-07-31T08:34:35.171Z,927.40
2018-07-31T08:37:02.323Z,921.77
2018-07-31T08:39:29.518Z,936.13
2018-07-31T08:41:56.725Z,944.87
2018-07-31T08:44:23.922Z,900.63
2018-07-31T08:46:51.143Z,924.37
2018-07-31T08:49:18.364Z,952.13
2018-07-31T08:51:45.554Z,936.27
2018-07-31T08:54:12.763Z,926.80
2018-07-31T08:56:39.980Z,947.25
2018-07-31T08:59:07.159Z,934.20
2018-07-31T09:01:34.371Z,942.95
2018-07-31T09:04:01.604Z,935.65
2018-07-31T09:06:28.814Z,936.92
2018-07-31T09:08:56.084Z,936.13
2018-07-31T09:11:23.192Z,917.77
2018-07-31T09:13:50.376Z,935.53
2018-07-31T09:16:17.556Z,907.08
2018-07-31T09:18:44.794Z,915.10
2018-07-31T09:21:11.964Z,954.53
2018-07-31T09:23:39.163Z,941.60
2018-07-31T09:26:06.353Z,933.58
2018-07-31T09:28:33.528Z,955.55
2018-07-31T09:31:06.654Z,951.65
2018-07-31T09:33:33.695Z,948.17
2018-07-31T09:36:00.856Z,943.65
2018-07-31T09:38:28.020Z,929.35
2018-07-31T09:40:55.187Z,961.50
2018-07-31T09:43:22.339Z,959.92
2018-07-31T09:45:49.492Z,935.37
2018-07-31T09:48:16.816Z,952.17
2018-07-31T09:50:44.074Z,949.15
2018-07-31T09:53:12.183Z,935.90
2018-07-31T09:55:39.356Z,942.50
2018-07-31T09:58:06.530Z,920.60
2018-07-31T10:00:39.536Z,946.25
2018-07-31T10:03:06.737Z,974.32
2018-07-31T10:05:34.112Z,969.80
2018-07-31T10:08:01.279Z,965.50
2018-07-31T10:10:28.457Z,944.65
2018-07-31T10:12:55.623Z,944.22
2018-07-31T10:15:22.792Z,943.40
2018-07-31T10:17:50.066Z,942.35
2018-07-31T10:20:17.199Z,951.00
2018-07-31T10:22:44.419Z,932.13
2018-07-31T10:25:11.565Z,949.10
2018-07-31T10:27:38.964Z,954.15
2018-07-31T10:30:07.472Z,952.65
2018-07-31T10:32:34.644Z,949.73
2018-07-31T10:35:01.827Z,945.27
2018-07-31T10:37:29.050Z,916.05
2018-07-31T10:39:56.206Z,947.02
2018-07-31T10:42:23.382Z,938.48
2018-07-31T10:44:50.720Z,938.63
2018-07-31T10:47:17.884Z,941.00
2018-07-31T10:49:45.045Z,955.50
2018-07-31T10:52:13.011Z,933.80
2018-07-31T10:54:40.189Z,939.58
2018-07-31T10:57:07.362Z,927.52
2018-07-31T10:59:34.570Z,940.12
2018-07-31T11:02:01.740Z,922.00
2018-07-31T11:04:28.900Z,942.73
2018-07-31T11:06:56.071Z,942.02
2018-07-31T11:09:23.276Z,931.00
2018-07-31T11:11:50.463Z,919.73
2018-07-31T11:14:17.699Z,915.70
2018-07-31T11:16:44.905Z,933.92
2018-07-31T11:19:12.127Z,930.03
2018-07-31T11:21:39.355Z,942.37
2018-07-31T11:24:06.566Z,942.30
2018-07-31T11:26:33.771Z,928.22
2018-07-31T11:29:00.973Z,941.60
2018-07-31T11:31:28.267Z,929.78
2018-07-31T11:33:55.468Z,911.17
2018-07-31T11:36:22.682Z,923.87
2018-07-31T11:38:49.891Z,936.05
2018-07-31T11:41:17.090Z,921.57
2018-07-31T11:43:44.304Z,931.80
2018-07-31T11:46:11.504Z,935.25
2018-07-31T11:48:38.699Z,913.95
2018-07-31T11:51:05.952Z,913.70
2018-07-31T11:53:33.159Z,935.90
2018-07-31T11:56:00.358Z,948.47
2018-07-31T11:58:27.600Z,921.15
2018-07-31T12:00:54.801Z,924.95
2018-07-31T12:03:22.003Z,942.65
2018-07-31T12:05:49.344Z,917.62
2018-07-31T12:08:16.538Z,951.67
2018-07-31T12:10:43.759Z,942.75
2018-07-31T12:13:10.961Z,942.00
2018-07-31T12:15:38.164Z,927.45
2018-07-31T12:18:05.434Z,932.42
2018-07-31T12:20:32.638Z,949.40
2018-07-31T12:22:59.827Z,935.62
2018-07-31T12:25:27.023Z,938.15
2018-07-31T12:27:54.238Z,945.23
2018-07-31T12:30:21.455Z,922.75
2018-07-31T12:32:48.713Z,923.47
2018-07-31T12:35:15.880Z,922.48
2018-07-31T12:37:43.081Z,958.50
2018-07-31T12:40:10.287Z,941.17
2018-07-31T12:42:37.499Z,941.27
2018-07-31T12:45:04.723Z,919.97
2018-07-31T12:47:31.955Z,930.08
2018-07-31T12:49:59.196Z,930.72
2018-07-31T12:52:26.664Z,944.75
2018-07-31T12:54:53.932Z,954.65
2018-07-31T12:57:21.141Z,945.52
2018-07-31T12:59:48.356Z,945.67
2018-07-31T13:02:15.546Z,932.32
2018-07-31T13:04:42.771Z,933.83
2018-07-31T13:07:09.964Z,934.77
2018-07-31T13:09:37.184Z,915.27
2018-07-31T13:12:04.681Z,950.62
2018-07-31T13:14:32.156Z,942.60
2018-07-31T13:16:59.354Z,919.85
2018-07-31T13:19:26.545Z,908.98
2018-07-31T13:21:53.764Z,943.97
2018-07-31T13:24:20.963Z,926.77
2018-07-31T13:26:48.169Z,942.13
2018-07-31T13:29:15.375Z,926.73
2018-07-31T13:31:42.583Z,942.25
2018-07-31T13:34:09.779Z,922.25
2018-07-31T13:36:36.989Z,934.75
2018-07-31T13:39:07.235Z,942.15
2018-07-31T13:41:34.465Z,922.05
2018-07-31T13:44:01.714Z,914.58
2018-07-31T13:46:28.863Z,934.22
2018-07-31T13:48:56.051Z,917.02
2018-07-31T13:51:23.288Z,916.70
2018-07-31T13:53:50.511Z,927.80
2018-07-31T13:56:17.729Z,904.83
2018-07-31T13:58:44.928Z,951.90
2018-07-31T14:01:12.144Z,925.68
2018-07-31T14:03:39.356Z,934.05
2018-07-31T14:06:06.594Z,923.05
2018-07-31T14:08:33.839Z,899.55
2018-07-31T14:11:01.037Z,922.40
2018-07-31T14:13:28.239Z,893.33
2018-07-31T14:15:55.462Z,911.97
2018-07-31T14:18:22.677Z,947.47
2018-07-31T14:20:49.892Z,911.35
2018-07-31T14:23:17.087Z,902.15
2018-07-31T14:25:44.328Z,918.97
2018-07-31T14:28:11.549Z,903.00
2018-07-31T14:30:38.789Z,913.52
2018-07-31T14:33:05.816Z,938.37
2018-07-31T14:35:33.021Z,950.80
2018-07-31T14:38:00.224Z,907.00
2018-07-31T14:40:27.420Z,935.90
2018-07-31T14:42:54.669Z,940.17
2018-07-31T14:45:21.851Z,930.20
2018-07-31T14:47:49.039Z,930.87
2018-07-31T14:50:16.240Z,898.20
2018-07-31T14:52:43.431Z,894.17
2018-07-31T14:55:10.651Z,899.60
2018-07-31T14:57:37.895Z,914.40
2018-07-31T15:00:05.610Z,915.43
2018-07-31T15:02:32.910Z,892.77
2018-07-31T15:05:00.100Z,922.30
2018-07-31T15:07:27.318Z,886.03
2018-07-31T15:09:54.518Z,886.53
2018-07-31T15:12:21.728Z,898.20
2018-07-31T15:14:48.985Z,918.97
2018-07-31T15:17:16.189Z,901.20
2018-07-31T15:19:43.403Z,889.77
2018-07-31T15:22:10.604Z,887.50
2018-07-31T15:24:37.827Z,918.93
2018-07-31T15:27:05.019Z,894.67
2018-07-31T15:29:32.237Z,889.50
2018-07-31T15:31:59.439Z,919.20
2018-07-31T15:34:26.635Z,886.40
2018-07-31T15:36:53.834Z,920.47
2018-07-31T15:39:21.047Z,893.47
2018-07-31T15:41:48.276Z,923.47
2018-07-31T15:44:15.489Z,888.57
2018-07-31T15:46:42.699Z,890.67
2018-07-31T15:49:09.907Z,880.37
2018-07-31T15:51:37.101Z,898.93
2018-07-31T15:54:04.392Z,905.53
2018-07-31T15:56:31.603Z,909.87
2018-07-31T15:58:58.814Z,912.93
2018-07-31T16:01:27.661Z,877.03
2018-07-31T16:03:54.877Z,874.60
2018-07-31T16:06:22.116Z,887.50
2018-07-31T16:08:49.336Z,915.63
2018-07-31T16:11:16.556Z,867.87
2018-07-31T16:13:43.756Z,895.67
2018-07-31T16:16:11.028Z,870.53
2018-07-31T16:18:38.256Z,861.90
2018-07-31T16:21:05.887Z,903.80
2018-07-31T16:23:33.145Z,865.73
2018-07-31T16:26:00.406Z,868.47
2018-07-31T16:28:27.597Z,850.77
2018-07-31T16:30:54.807Z,849.83
2018-07-31T16:33:22.012Z,845.50
2018-07-31T16:35:49.293Z,872.07
2018-07-31T16:38:16.527Z,877.47
2018-07-31T16:40:43.723Z,866.40
2018-07-31T16:43:10.943Z,854.07
2018-07-31T16:45:38.191Z,867.87
2018-07-31T16:48:05.468Z,885.80
2018-07-31T16:50:32.744Z,883.47
2018-07-31T16:52:59.995Z,855.17
2018-07-31T16:55:27.271Z,840.17
2018-07-31T16:57:54.567Z,849.17
2018-07-31T17:00:21.804Z,845.67
2018-07-31T17:02:49.060Z,833.37
2018-07-31T17:05:16.322Z,861.07
2018-07-31T17:07:43.776Z,879.10
2018-07-31T17:10:11.255Z,856.47
2018-07-31T17:12:38.672Z,844.93
2018-07-31T17:15:06.339Z,841.43
2018-07-31T17:17:33.582Z,847.13
2018-07-31T17:20:00.916Z,844.07
2018-07-31T17:22:28.148Z,845.20
2018-07-31T17:24:55.452Z,830.37
2018-07-31T17:27:22.755Z,840.57
2018-07-31T17:29:49.991Z,828.03
2018-07-31T17:32:17.207Z,835.50
2018-07-31T17:34:44.411Z,828.50
2018-07-31T17:37:11.651Z,830.27
2018-07-31T17:39:38.959Z,815.47
2018-07-31T17:42:06.236Z,808.30
2018-07-31T17:44:33.470Z,802.37
2018-07-31T17:47:00.752Z,812.93
2018-07-31T17:49:28.077Z,781.47
2018-07-31T17:51:55.359Z,762.23
2018-07-31T17:54:22.577Z,780.93
2018-07-31T17:56:49.840Z,788.50
2018-07-31T17:59:17.368Z,748.37
2018-07-31T18:01:44.652Z,755.60
2018-07-31T18:04:11.952Z,727.20
2018-07-31T18:06:39.232Z,735.80
2018-07-31T18:09:07.655Z,747.67
2018-07-31T18:11:35.036Z,730.00
2018-07-31T18:14:02.452Z,698.77
2018-07-31T18:16:29.591Z,701.10
2018-07-31T18:18:56.909Z,732.17
2018-07-31T18:21:24.128Z,687.37
2018-07-31T18:23:51.490Z,682.17
2018-07-31T18:26:18.940Z,679.97
2018-07-31T18:28:46.243Z,696.30
2018-07-31T18:31:13.742Z,696.83
2018-07-31T18:33:40.995Z,683.03
2018-07-31T18:36:08.271Z,667.33
2018-07-31T18:38:35.571Z,660.03
2018-07-31T18:41:03.065Z,674.50
2018-07-31T18:43:30.359Z,672.83
2018-07-31T18:45:57.580Z,654.10
2018-07-31T18:48:24.957Z,654.10
2018-07-31T18:50:52.222Z,642.67
2018-07-31T18:53:19.482Z,656.53
2018-07-31T18:55:46.850Z,672.37
2018-07-31T18:58:14.162Z,657.63
2018-07-31T19:00:41.485Z,684.27
2018-07-31T19:03:08.900Z,638.67
2018-07-31T19:05:36.128Z,637.40
2018-07-31T19:08:03.630Z,621.00
2018-07-31T19:10:30.884Z,640.93
2018-07-31T19:12:58.186Z,646.80
2018-07-31T19:15:25.415Z,616.97
2018-07-31T19:17:52.653Z,625.80
2018-07-31T19:20:19.932Z,632.27
2018-07-31T19:22:47.232Z,626.90
2018-07-31T19:25:14.539Z,639.77
2018-07-31T19:27:41.882Z,617.70
2018-07-31T19:30:09.144Z,620.90
2018-07-31T19:32:36.431Z,612.73
2018-07-31T19:35:03.801Z,604.50
2018-07-31T19:37:31.136Z,625.10
2018-07-31T19:39:58.356Z,597.33
2018-07-31T19:42:25.879Z,587.40
2018-07-31T19:44:53.082Z,587.73
2018-07-31T19:47:20.331Z,610.80
2018-07-31T19:49:47.508Z,595.50
2018-07-31T19:52:14.802Z,596.17
2018-07-31T19:54:41.992Z,590.60
2018-07-31T19:57:09.248Z,634.47
2018-07-31T19:59:36.951Z,594.63
2018-07-31T20:02:04.217Z,610.23
2018-07-31T20:04:31.428Z,603.73
2018-07-31T20:06:58.724Z,618.63
2018-07-31T20:09:27.217Z,608.77
2018-07-31T20:11:55.804Z,593.53
2018-07-31T20:14:23.575Z,586.80
2018-07-31T20:16:50.951Z,593.20
2018-07-31T20:19:18.412Z,586.77
2018-07-31T20:21:45.617Z,586.23
2018-07-31T20:24:13.032Z,583.67
2018-07-31T20:26:40.383Z,588.23
2018-07-31T20:29:07.887Z,590.17
2018-07-31T20:31:35.094Z,586.93
2018-07-31T20:34:02.308Z,610.20
2018-07-31T20:36:29.538Z,589.67
2018-07-31T20:38:56.783Z,586.73
2018-07-31T20:41:23.993Z,587.10
2018-07-31T20:43:52.239Z,587.40
2018-07-31T20:46:19.430Z,589.57
2018-07-31T20:48:46.636Z,597.27
2018-07-31T20:51:13.865Z,586.13
2018-07-31T20:53:41.050Z,584.83
2018-07-31T20:56:08.241Z,583.03
2018-07-31T20:58:35.443Z,584.33
2018-07-31T21:01:02.684Z,589.20
2018-07-31T21:03:30.103Z,586.40
2018-07-31T21:05:57.324Z,585.30
2018-07-31T21:08:24.604Z,585.50
2018-07-31T21:10:51.818Z,586.37
2018-07-31T21:13:19.094Z,584.50
2018-07-31T21:15:46.351Z,587.50
2018-07-31T21:18:13.706Z,584.10
2018-07-31T21:20:40.878Z,578.80
2018-07-31T21:23:08.167Z,583.33
2018-07-31T21:25:35.679Z,580.10
2018-07-31T21:28:02.957Z,586.83
2018-07-31T21:30:30.185Z,584.37
2018-07-31T21:32:57.391Z,579.17
2018-07-31T21:35:24.675Z,580.83
2018-07-31T21:37:52.028Z,579.97
2018-07-31T21:40:19.234Z,578.77
2018-07-31T21:42:46.428Z,577.37
2018-07-31T21:45:13.638Z,579.03
2018-07-31T21:47:40.911Z,583.47
2018-07-31T21:50:08.083Z,581.43
2018-07-31T21:52:35.276Z,578.43
2018-07-31T21:55:02.557Z,579.93
2018-07-31T21:57:29.722Z,583.03
2018-07-31T21:59:56.926Z,586.80
2018-07-31T22:02:24.119Z,581.87
2018-07-31T22:04:51.344Z,576.13
2018-07-31T22:07:18.524Z,579.40
2018-07-31T22:09:45.870Z,579.87
2018-07-31T22:12:13.207Z,577.57
2018-07-31T22:14:40.779Z,575.90
2018-07-31T22:17:08.145Z,583.17
2018-07-31T22:19:35.412Z,582.13
2018-07-31T22:22:02.619Z,576.47
2018-07-31T22:24:29.840Z,583.83
2018-07-31T22:26:57.049Z,583.80
2018-07-31T22:29:24.239Z,585.47
2018-07-31T22:31:51.439Z,575.97
2018-07-31T22:34:18.635Z,577.43
2018-07-31T22:36:45.832Z,575.43
2018-07-31T22:39:13.044Z,580.07
2018-07-31T22:41:40.486Z,578.97
2018-07-31T22:44:07.671Z,581.10
2018-07-31T22:46:34.876Z,578.47
2018-07-31T22:49:02.269Z,574.20
2018-07-31T22:51:29.499Z,573.40
2018-07-31T22:53:56.709Z,579.77
2018-07-31T22:56:23.891Z,576.40
2018-07-31T22:58:51.701Z,579.13
2018-07-31T23:01:19.008Z,580.40
2018-07-31T23:03:46.221Z,575.37
2018-07-31T23:06:13.443Z,575.83
2018-07-31T23:08:40.643Z,575.20
2018-07-31T23:11:07.859Z,575.03
2018-07-31T23:13:35.063Z,574.83
2018-07-31T23:16:02.284Z,581.50
2018-07-31T23:18:29.484Z,573.00
2018-07-31T23:20:56.747Z,580.00
2018-07-31T23:23:23.895Z,573.43
2018-07-31T23:25:51.107Z,574.93
2018-07-31T23:28:18.296Z,577.93
2018-07-31T23:30:45.500Z,573.10
2018-07-31T23:33:12.702Z,574.80
2018-07-31T23:35:39.933Z,569.60
2018-07-31T23:38:07.143Z,570.67
2018-07-31T23:40:34.356Z,573.03
2018-07-31T23:43:01.560Z,576.93
2018-07-31T23:45:28.757Z,574.43
2018-07-31T23:47:55.951Z,570.50
2018-07-31T23:50:23.142Z,569.50
2018-07-31T23:52:50.356Z,571.60
2018-07-31T23:55:17.561Z,573.43
2018-07-31T23:57:44.963Z,568.53
